sensor_id;sensor_type;location;lat;lon;timestamp;P1;durP1;ratioP1;P2;durP2;ratioP2
75450;SDS011;64029;48.244;9.188;2023-12-28T00:01:31;17.33;;;10.07;;
75450;SDS011;64029;48.244;9.188;2023-12-28T00:03:58;18.50;;;10.03;;
75450;SDS011;64029;48.244;9.188;2023-12-28T00:06:25;19.57;;;10.70;;
75450;SDS011;64029;48.244;9.188;2023-12-28T00:08:52;18.07;;;10.50;;
75450;SDS011;64029;48.244;9.188;2023-12-28T00:11:18;19.17;;;11.23;;
75450;SDS011;64029;48.244;9.188;2023-12-28T00:13:45;20.87;;;11.63;;
75450;SDS011;64029;48.244;9.188;2023-12-28T00:16:12;18.60;;;12.50;;
75450;SDS011;64029;48.244;9.188;2023-12-28T00:18:41;16.33;;;10.53;;
75450;SDS011;64029;48.244;9.188;2023-12-28T00:21:07;15.63;;;10.30;;
75450;SDS011;64029;48.244;9.188;2023-12-28T00:23:34;20.00;;;10.53;;
75450;SDS011;64029;48.244;9.188;2023-12-28T00:26:01;17.70;;;9.63;;
75450;SDS011;64029;48.244;9.188;2023-12-28T00:28:28;18.00;;;11.00;;
75450;SDS011;64029;48.244;9.188;2023-12-28T00:30:55;19.43;;;10.70;;
75450;SDS011;64029;48.244;9.188;2023-12-28T00:33:22;12.93;;;8.77;;
75450;SDS011;64029;48.244;9.188;2023-12-28T00:35:50;20.43;;;9.77;;
75450;SDS011;64029;48.244;9.188;2023-12-28T00:38:16;14.53;;;8.83;;
75450;SDS011;64029;48.244;9.188;2023-12-28T00:40:43;12.93;;;8.63;;
75450;SDS011;64029;48.244;9.188;2023-12-28T00:43:09;15.70;;;8.53;;
75450;SDS011;64029;48.244;9.188;2023-12-28T00:45:36;14.47;;;9.33;;
75450;SDS011;64029;48.244;9.188;2023-12-28T00:48:03;15.30;;;8.87;;
75450;SDS011;64029;48.244;9.188;2023-12-28T00:50:30;16.43;;;8.40;;
75450;SDS011;64029;48.244;9.188;2023-12-28T00:52:59;24.30;;;9.33;;
75450;SDS011;64029;48.244;9.188;2023-12-28T00:55:26;15.40;;;8.80;;
75450;SDS011;64029;48.244;9.188;2023-12-28T00:57:52;13.13;;;8.20;;
75450;SDS011;64029;48.244;9.188;2023-12-28T01:00:19;14.07;;;8.50;;
75450;SDS011;64029;48.244;9.188;2023-12-28T01:02:46;12.80;;;8.27;;
75450;SDS011;64029;48.244;9.188;2023-12-28T01:05:14;14.00;;;8.03;;
75450;SDS011;64029;48.244;9.188;2023-12-28T01:07:41;12.90;;;8.90;;
75450;SDS011;64029;48.244;9.188;2023-12-28T01:10:10;14.17;;;8.77;;
75450;SDS011;64029;48.244;9.188;2023-12-28T01:12:37;14.37;;;9.30;;
75450;SDS011;64029;48.244;9.188;2023-12-28T01:15:04;20.60;;;10.10;;
75450;SDS011;64029;48.244;9.188;2023-12-28T01:17:33;16.80;;;9.37;;
75450;SDS011;64029;48.244;9.188;2023-12-28T01:19:59;18.40;;;8.87;;
75450;SDS011;64029;48.244;9.188;2023-12-28T01:22:26;15.77;;;9.67;;
75450;SDS011;64029;48.244;9.188;2023-12-28T01:24:53;18.00;;;8.83;;
75450;SDS011;64029;48.244;9.188;2023-12-28T01:27:21;17.90;;;8.83;;
75450;SDS011;64029;48.244;9.188;2023-12-28T01:29:48;14.00;;;9.33;;
75450;SDS011;64029;48.244;9.188;2023-12-28T01:32:15;19.33;;;9.57;;
75450;SDS011;64029;48.244;9.188;2023-12-28T01:34:42;18.30;;;11.27;;
75450;SDS011;64029;48.244;9.188;2023-12-28T01:37:08;24.80;;;11.83;;
75450;SDS011;64029;48.244;9.188;2023-12-28T01:39:35;21.30;;;11.17;;
75450;SDS011;64029;48.244;9.188;2023-12-28T01:42:02;21.83;;;11.60;;
75450;SDS011;64029;48.244;9.188;2023-12-28T01:44:31;27.23;;;11.00;;
75450;SDS011;64029;48.244;9.188;2023-12-28T01:46:58;26.40;;;12.70;;
75450;SDS011;64029;48.244;9.188;2023-12-28T01:49:25;18.80;;;9.57;;
75450;SDS011;64029;48.244;9.188;2023-12-28T01:51:52;14.43;;;8.80;;
75450;SDS011;64029;48.244;9.188;2023-12-28T01:54:20;15.93;;;9.00;;
75450;SDS011;64029;48.244;9.188;2023-12-28T01:56:46;14.97;;;9.03;;
75450;SDS011;64029;48.244;9.188;2023-12-28T01:59:14;14.17;;;7.27;;
75450;SDS011;64029;48.244;9.188;2023-12-28T02:01:42;14.60;;;8.47;;
75450;SDS011;64029;48.244;9.188;2023-12-28T02:04:10;15.20;;;8.43;;
75450;SDS011;64029;48.244;9.188;2023-12-28T02:06:37;12.67;;;7.80;;
75450;SDS011;64029;48.244;9.188;2023-12-28T02:09:04;12.60;;;7.13;;
75450;SDS011;64029;48.244;9.188;2023-12-28T02:11:30;12.50;;;6.90;;
75450;SDS011;64029;48.244;9.188;2023-12-28T02:13:57;10.80;;;6.50;;
75450;SDS011;64029;48.244;9.188;2023-12-28T02:16:25;11.73;;;6.60;;
75450;SDS011;64029;48.244;9.188;2023-12-28T02:18:59;12.00;;;6.70;;
75450;SDS011;64029;48.244;9.188;2023-12-28T02:21:30;11.13;;;7.10;;
75450;SDS011;64029;48.244;9.188;2023-12-28T02:23:59;12.80;;;7.20;;
75450;SDS011;64029;48.244;9.188;2023-12-28T02:26:27;14.90;;;6.40;;
75450;SDS011;64029;48.244;9.188;2023-12-28T02:28:54;11.43;;;6.70;;
75450;SDS011;64029;48.244;9.188;2023-12-28T02:31:21;8.47;;;6.13;;
75450;SDS011;64029;48.244;9.188;2023-12-28T02:33:54;8.53;;;5.50;;
75450;SDS011;64029;48.244;9.188;2023-12-28T02:36:26;10.00;;;5.90;;
75450;SDS011;64029;48.244;9.188;2023-12-28T02:38:53;10.60;;;6.10;;
75450;SDS011;64029;48.244;9.188;2023-12-28T02:41:24;9.40;;;5.50;;
75450;SDS011;64029;48.244;9.188;2023-12-28T02:43:53;9.73;;;5.73;;
75450;SDS011;64029;48.244;9.188;2023-12-28T02:46:20;10.70;;;6.30;;
75450;SDS011;64029;48.244;9.188;2023-12-28T02:48:47;10.90;;;6.57;;
75450;SDS011;64029;48.244;9.188;2023-12-28T02:51:14;8.67;;;6.20;;
75450;SDS011;64029;48.244;9.188;2023-12-28T02:53:41;7.77;;;5.60;;
75450;SDS011;64029;48.244;9.188;2023-12-28T02:56:07;13.63;;;6.30;;
75450;SDS011;64029;48.244;9.188;2023-12-28T02:58:35;9.53;;;5.90;;
75450;SDS011;64029;48.244;9.188;2023-12-28T03:01:02;12.57;;;6.37;;
75450;SDS011;64029;48.244;9.188;2023-12-28T03:03:29;20.53;;;6.73;;
75450;SDS011;64029;48.244;9.188;2023-12-28T03:05:55;9.47;;;5.90;;
75450;SDS011;64029;48.244;9.188;2023-12-28T03:08:22;8.77;;;5.93;;
75450;SDS011;64029;48.244;9.188;2023-12-28T03:10:49;8.17;;;6.20;;
75450;SDS011;64029;48.244;9.188;2023-12-28T03:13:17;8.10;;;6.50;;
75450;SDS011;64029;48.244;9.188;2023-12-28T03:15:46;7.60;;;5.37;;
75450;SDS011;64029;48.244;9.188;2023-12-28T03:18:12;8.13;;;5.20;;
75450;SDS011;64029;48.244;9.188;2023-12-28T03:20:39;11.87;;;6.20;;
75450;SDS011;64029;48.244;9.188;2023-12-28T03:23:06;7.60;;;5.80;;
75450;SDS011;64029;48.244;9.188;2023-12-28T03:25:33;7.57;;;5.37;;
75450;SDS011;64029;48.244;9.188;2023-12-28T03:28:00;13.17;;;7.13;;
75450;SDS011;64029;48.244;9.188;2023-12-28T03:30:27;13.67;;;6.07;;
75450;SDS011;64029;48.244;9.188;2023-12-28T03:32:55;10.30;;;6.10;;
75450;SDS011;64029;48.244;9.188;2023-12-28T03:35:22;7.77;;;5.53;;
75450;SDS011;64029;48.244;9.188;2023-12-28T03:37:49;8.20;;;6.03;;
75450;SDS011;64029;48.244;9.188;2023-12-28T03:40:16;7.60;;;5.40;;
75450;SDS011;64029;48.244;9.188;2023-12-28T03:42:43;9.93;;;5.20;;
75450;SDS011;64029;48.244;9.188;2023-12-28T03:45:10;25.40;;;5.57;;
75450;SDS011;64029;48.244;9.188;2023-12-28T03:47:37;9.13;;;5.50;;
75450;SDS011;64029;48.244;9.188;2023-12-28T03:50:05;7.37;;;5.27;;
75450;SDS011;64029;48.244;9.188;2023-12-28T03:52:33;11.93;;;5.87;;
75450;SDS011;64029;48.244;9.188;2023-12-28T03:55:00;9.63;;;5.43;;
75450;SDS011;64029;48.244;9.188;2023-12-28T03:57:26;17.93;;;6.10;;
75450;SDS011;64029;48.244;9.188;2023-12-28T03:59:53;9.20;;;6.00;;
75450;SDS011;64029;48.244;9.188;2023-12-28T04:02:20;11.57;;;5.70;;
75450;SDS011;64029;48.244;9.188;2023-12-28T04:04:49;12.20;;;6.57;;
75450;SDS011;64029;48.244;9.188;2023-12-28T04:07:18;7.33;;;5.10;;
75450;SDS011;64029;48.244;9.188;2023-12-28T04:09:45;11.20;;;5.70;;
75450;SDS011;64029;48.244;9.188;2023-12-28T04:12:11;7.37;;;4.57;;
75450;SDS011;64029;48.244;9.188;2023-12-28T04:14:38;7.20;;;4.70;;
75450;SDS011;64029;48.244;9.188;2023-12-28T04:17:05;8.90;;;4.90;;
75450;SDS011;64029;48.244;9.188;2023-12-28T04:19:32;7.00;;;5.07;;
75450;SDS011;64029;48.244;9.188;2023-12-28T04:21:59;7.90;;;4.93;;
75450;SDS011;64029;48.244;9.188;2023-12-28T04:24:27;7.37;;;4.90;;
75450;SDS011;64029;48.244;9.188;2023-12-28T04:26:54;6.20;;;4.37;;
75450;SDS011;64029;48.244;9.188;2023-12-28T04:29:21;7.17;;;4.83;;
75450;SDS011;64029;48.244;9.188;2023-12-28T04:31:47;8.10;;;5.33;;
75450;SDS011;64029;48.244;9.188;2023-12-28T04:34:14;5.90;;;4.30;;
75450;SDS011;64029;48.244;9.188;2023-12-28T04:36:41;6.10;;;4.43;;
75450;SDS011;64029;48.244;9.188;2023-12-28T04:39:08;5.93;;;4.30;;
75450;SDS011;64029;48.244;9.188;2023-12-28T04:41:36;11.67;;;4.90;;
75450;SDS011;64029;48.244;9.188;2023-12-28T04:44:03;8.00;;;4.60;;
75450;SDS011;64029;48.244;9.188;2023-12-28T04:46:30;6.40;;;5.07;;
75450;SDS011;64029;48.244;9.188;2023-12-28T04:48:57;8.50;;;5.83;;
75450;SDS011;64029;48.244;9.188;2023-12-28T04:51:24;7.87;;;5.97;;
75450;SDS011;64029;48.244;9.188;2023-12-28T04:53:50;9.33;;;6.33;;
75450;SDS011;64029;48.244;9.188;2023-12-28T04:56:18;12.10;;;6.30;;
75450;SDS011;64029;48.244;9.188;2023-12-28T04:58:46;7.50;;;5.67;;
75450;SDS011;64029;48.244;9.188;2023-12-28T05:01:13;13.53;;;7.17;;
75450;SDS011;64029;48.244;9.188;2023-12-28T05:03:40;9.57;;;6.00;;
75450;SDS011;64029;48.244;9.188;2023-12-28T05:06:07;12.20;;;7.87;;
75450;SDS011;64029;48.244;9.188;2023-12-28T05:08:33;10.53;;;6.80;;
75450;SDS011;64029;48.244;9.188;2023-12-28T05:11:00;11.80;;;7.33;;
75450;SDS011;64029;48.244;9.188;2023-12-28T05:13:27;11.47;;;7.00;;
75450;SDS011;64029;48.244;9.188;2023-12-28T05:15:55;11.20;;;6.67;;
75450;SDS011;64029;48.244;9.188;2023-12-28T05:18:22;14.47;;;7.50;;
75450;SDS011;64029;48.244;9.188;2023-12-28T05:20:49;18.17;;;9.00;;
75450;SDS011;64029;48.244;9.188;2023-12-28T05:23:16;13.43;;;6.70;;
75450;SDS011;64029;48.244;9.188;2023-12-28T05:25:42;9.27;;;6.53;;
75450;SDS011;64029;48.244;9.188;2023-12-28T05:28:11;9.97;;;6.30;;
75450;SDS011;64029;48.244;9.188;2023-12-28T05:30:38;9.13;;;5.37;;
75450;SDS011;64029;48.244;9.188;2023-12-28T05:33:06;9.07;;;5.67;;
75450;SDS011;64029;48.244;9.188;2023-12-28T05:35:32;7.90;;;4.33;;
75450;SDS011;64029;48.244;9.188;2023-12-28T05:37:59;7.47;;;4.70;;
75450;SDS011;64029;48.244;9.188;2023-12-28T05:40:26;9.10;;;5.00;;
75450;SDS011;64029;48.244;9.188;2023-12-28T05:42:53;9.30;;;5.00;;
75450;SDS011;64029;48.244;9.188;2023-12-28T05:45:20;9.10;;;5.83;;
75450;SDS011;64029;48.244;9.188;2023-12-28T05:47:46;8.63;;;5.40;;
75450;SDS011;64029;48.244;9.188;2023-12-28T05:50:15;9.37;;;5.70;;
75450;SDS011;64029;48.244;9.188;2023-12-28T05:52:41;8.13;;;5.00;;
75450;SDS011;64029;48.244;9.188;2023-12-28T05:55:08;9.40;;;6.03;;
75450;SDS011;64029;48.244;9.188;2023-12-28T05:57:35;6.30;;;4.60;;
75450;SDS011;64029;48.244;9.188;2023-12-28T06:00:02;7.17;;;4.90;;
75450;SDS011;64029;48.244;9.188;2023-12-28T06:02:31;7.43;;;4.40;;
75450;SDS011;64029;48.244;9.188;2023-12-28T06:04:58;8.40;;;4.97;;
75450;SDS011;64029;48.244;9.188;2023-12-28T06:07:26;10.17;;;5.60;;
75450;SDS011;64029;48.244;9.188;2023-12-28T06:09:53;7.50;;;5.60;;
75450;SDS011;64029;48.244;9.188;2023-12-28T06:12:22;7.53;;;5.70;;
75450;SDS011;64029;48.244;9.188;2023-12-28T06:14:49;7.53;;;5.13;;
75450;SDS011;64029;48.244;9.188;2023-12-28T06:17:16;8.47;;;6.07;;
75450;SDS011;64029;48.244;9.188;2023-12-28T06:19:43;7.87;;;5.00;;
75450;SDS011;64029;48.244;9.188;2023-12-28T06:22:10;13.83;;;6.10;;
75450;SDS011;64029;48.244;9.188;2023-12-28T06:24:38;6.73;;;4.83;;
75450;SDS011;64029;48.244;9.188;2023-12-28T06:27:06;8.60;;;5.17;;
75450;SDS011;64029;48.244;9.188;2023-12-28T06:29:33;10.43;;;5.57;;
75450;SDS011;64029;48.244;9.188;2023-12-28T06:31:59;6.50;;;4.90;;
75450;SDS011;64029;48.244;9.188;2023-12-28T06:34:26;5.90;;;4.53;;
75450;SDS011;64029;48.244;9.188;2023-12-28T06:36:53;8.00;;;4.73;;
75450;SDS011;64029;48.244;9.188;2023-12-28T06:39:20;7.00;;;5.27;;
75450;SDS011;64029;48.244;9.188;2023-12-28T06:41:48;8.97;;;5.20;;
75450;SDS011;64029;48.244;9.188;2023-12-28T06:44:15;8.63;;;5.03;;
75450;SDS011;64029;48.244;9.188;2023-12-28T06:46:42;8.90;;;5.00;;
75450;SDS011;64029;48.244;9.188;2023-12-28T06:49:08;8.30;;;4.93;;
75450;SDS011;64029;48.244;9.188;2023-12-28T06:51:35;7.43;;;5.07;;
75450;SDS011;64029;48.244;9.188;2023-12-28T06:54:02;7.60;;;4.87;;
75450;SDS011;64029;48.244;9.188;2023-12-28T06:56:29;6.13;;;4.73;;
75450;SDS011;64029;48.244;9.188;2023-12-28T06:58:57;7.87;;;5.50;;
75450;SDS011;64029;48.244;9.188;2023-12-28T07:01:24;8.27;;;4.80;;
75450;SDS011;64029;48.244;9.188;2023-12-28T07:03:51;7.80;;;4.80;;
75450;SDS011;64029;48.244;9.188;2023-12-28T07:06:18;7.30;;;5.10;;
75450;SDS011;64029;48.244;9.188;2023-12-28T07:08:45;7.87;;;5.03;;
75450;SDS011;64029;48.244;9.188;2023-12-28T07:11:11;7.97;;;5.37;;
75450;SDS011;64029;48.244;9.188;2023-12-28T07:13:38;5.27;;;4.60;;
75450;SDS011;64029;48.244;9.188;2023-12-28T07:16:06;8.43;;;5.93;;
75450;SDS011;64029;48.244;9.188;2023-12-28T07:18:33;8.00;;;5.30;;
75450;SDS011;64029;48.244;9.188;2023-12-28T07:21:00;7.30;;;5.00;;
75450;SDS011;64029;48.244;9.188;2023-12-28T07:23:27;6.70;;;5.40;;
75450;SDS011;64029;48.244;9.188;2023-12-28T07:25:54;7.60;;;5.40;;
75450;SDS011;64029;48.244;9.188;2023-12-28T07:28:21;5.70;;;4.50;;
75450;SDS011;64029;48.244;9.188;2023-12-28T07:30:47;6.40;;;5.23;;
75450;SDS011;64029;48.244;9.188;2023-12-28T07:33:15;8.83;;;5.63;;
75450;SDS011;64029;48.244;9.188;2023-12-28T07:35:42;6.00;;;4.60;;
75450;SDS011;64029;48.244;9.188;2023-12-28T07:38:09;6.77;;;4.93;;
75450;SDS011;64029;48.244;9.188;2023-12-28T07:40:37;7.70;;;5.70;;
75450;SDS011;64029;48.244;9.188;2023-12-28T07:43:04;8.23;;;6.60;;
75450;SDS011;64029;48.244;9.188;2023-12-28T07:45:30;9.80;;;6.67;;
75450;SDS011;64029;48.244;9.188;2023-12-28T07:47:58;10.03;;;7.20;;
75450;SDS011;64029;48.244;9.188;2023-12-28T07:50:27;9.67;;;6.33;;
75450;SDS011;64029;48.244;9.188;2023-12-28T07:52:54;10.90;;;6.90;;
75450;SDS011;64029;48.244;9.188;2023-12-28T07:55:21;16.33;;;10.13;;
75450;SDS011;64029;48.244;9.188;2023-12-28T07:57:47;12.07;;;9.03;;
75450;SDS011;64029;48.244;9.188;2023-12-28T08:00:15;10.87;;;8.50;;
75450;SDS011;64029;48.244;9.188;2023-12-28T08:02:42;13.03;;;8.13;;
75450;SDS011;64029;48.244;9.188;2023-12-28T08:05:09;14.57;;;7.60;;
75450;SDS011;64029;48.244;9.188;2023-12-28T08:07:37;10.83;;;7.30;;
75450;SDS011;64029;48.244;9.188;2023-12-28T08:10:04;9.50;;;7.33;;
75450;SDS011;64029;48.244;9.188;2023-12-28T08:12:32;9.10;;;6.30;;
75450;SDS011;64029;48.244;9.188;2023-12-28T08:14:59;8.63;;;5.97;;
75450;SDS011;64029;48.244;9.188;2023-12-28T08:17:25;5.90;;;5.27;;
75450;SDS011;64029;48.244;9.188;2023-12-28T08:19:52;6.40;;;5.33;;
75450;SDS011;64029;48.244;9.188;2023-12-28T08:22:22;6.80;;;5.20;;
75450;SDS011;64029;48.244;9.188;2023-12-28T08:24:50;7.73;;;5.53;;
75450;SDS011;64029;48.244;9.188;2023-12-28T08:27:17;6.23;;;4.17;;
75450;SDS011;64029;48.244;9.188;2023-12-28T08:29:44;6.40;;;4.53;;
75450;SDS011;64029;48.244;9.188;2023-12-28T08:32:11;7.60;;;4.90;;
75450;SDS011;64029;48.244;9.188;2023-12-28T08:34:38;8.60;;;4.80;;
75450;SDS011;64029;48.244;9.188;2023-12-28T08:37:04;6.93;;;4.97;;
75450;SDS011;64029;48.244;9.188;2023-12-28T08:39:31;5.20;;;4.70;;
75450;SDS011;64029;48.244;9.188;2023-12-28T08:42:00;10.63;;;6.20;;
75450;SDS011;64029;48.244;9.188;2023-12-28T08:44:27;8.73;;;5.90;;
75450;SDS011;64029;48.244;9.188;2023-12-28T08:46:53;9.90;;;7.17;;
75450;SDS011;64029;48.244;9.188;2023-12-28T08:49:20;13.53;;;9.00;;
75450;SDS011;64029;48.244;9.188;2023-12-28T08:51:48;11.43;;;8.57;;
75450;SDS011;64029;48.244;9.188;2023-12-28T08:54:14;13.47;;;8.10;;
75450;SDS011;64029;48.244;9.188;2023-12-28T08:56:41;12.07;;;7.50;;
75450;SDS011;64029;48.244;9.188;2023-12-28T08:59:10;13.33;;;8.17;;
75450;SDS011;64029;48.244;9.188;2023-12-28T09:01:37;12.57;;;9.53;;
75450;SDS011;64029;48.244;9.188;2023-12-28T09:04:03;16.17;;;8.40;;
75450;SDS011;64029;48.244;9.188;2023-12-28T09:06:30;13.07;;;9.40;;
75450;SDS011;64029;48.244;9.188;2023-12-28T09:08:57;13.73;;;8.20;;
75450;SDS011;64029;48.244;9.188;2023-12-28T09:11:24;27.50;;;16.00;;
75450;SDS011;64029;48.244;9.188;2023-12-28T09:13:52;24.43;;;14.00;;
75450;SDS011;64029;48.244;9.188;2023-12-28T09:16:20;19.60;;;12.20;;
75450;SDS011;64029;48.244;9.188;2023-12-28T09:18:47;20.50;;;11.00;;
75450;SDS011;64029;48.244;9.188;2023-12-28T09:21:14;17.97;;;10.83;;
75450;SDS011;64029;48.244;9.188;2023-12-28T09:23:40;15.47;;;9.90;;
75450;SDS011;64029;48.244;9.188;2023-12-28T09:26:07;23.23;;;14.00;;
75450;SDS011;64029;48.244;9.188;2023-12-28T09:28:34;16.87;;;12.40;;
75450;SDS011;64029;48.244;9.188;2023-12-28T09:31:01;16.10;;;10.90;;
75450;SDS011;64029;48.244;9.188;2023-12-28T09:33:30;15.70;;;11.00;;
75450;SDS011;64029;48.244;9.188;2023-12-28T09:35:57;15.90;;;9.90;;
75450;SDS011;64029;48.244;9.188;2023-12-28T09:38:24;14.03;;;8.93;;
75450;SDS011;64029;48.244;9.188;2023-12-28T09:40:53;8.87;;;6.93;;
75450;SDS011;64029;48.244;9.188;2023-12-28T09:43:22;8.37;;;5.80;;
75450;SDS011;64029;48.244;9.188;2023-12-28T09:45:50;8.03;;;5.63;;
75450;SDS011;64029;48.244;9.188;2023-12-28T09:48:18;7.77;;;5.10;;
75450;SDS011;64029;48.244;9.188;2023-12-28T09:50:48;5.20;;;4.70;;
75450;SDS011;64029;48.244;9.188;2023-12-28T09:53:16;5.27;;;4.27;;
75450;SDS011;64029;48.244;9.188;2023-12-28T09:55:43;8.93;;;5.50;;
75450;SDS011;64029;48.244;9.188;2023-12-28T09:58:11;7.20;;;5.03;;
75450;SDS011;64029;48.244;9.188;2023-12-28T10:00:42;6.13;;;4.17;;
75450;SDS011;64029;48.244;9.188;2023-12-28T10:03:11;6.63;;;4.50;;
75450;SDS011;64029;48.244;9.188;2023-12-28T10:05:40;7.47;;;5.40;;
75450;SDS011;64029;48.244;9.188;2023-12-28T10:08:10;6.00;;;5.07;;
75450;SDS011;64029;48.244;9.188;2023-12-28T10:10:37;9.50;;;5.50;;
75450;SDS011;64029;48.244;9.188;2023-12-28T10:13:05;5.80;;;4.87;;
75450;SDS011;64029;48.244;9.188;2023-12-28T10:15:32;8.40;;;5.10;;
75450;SDS011;64029;48.244;9.188;2023-12-28T10:17:59;7.10;;;5.17;;
75450;SDS011;64029;48.244;9.188;2023-12-28T10:20:28;10.77;;;5.03;;
75450;SDS011;64029;48.244;9.188;2023-12-28T10:22:55;8.90;;;5.23;;
75450;SDS011;64029;48.244;9.188;2023-12-28T10:25:24;6.10;;;4.57;;
75450;SDS011;64029;48.244;9.188;2023-12-28T10:27:50;8.53;;;5.40;;
75450;SDS011;64029;48.244;9.188;2023-12-28T10:30:19;7.57;;;5.03;;
75450;SDS011;64029;48.244;9.188;2023-12-28T10:32:46;6.77;;;4.60;;
75450;SDS011;64029;48.244;9.188;2023-12-28T10:35:13;5.80;;;5.00;;
75450;SDS011;64029;48.244;9.188;2023-12-28T10:37:41;7.70;;;5.03;;
75450;SDS011;64029;48.244;9.188;2023-12-28T10:40:11;11.60;;;6.43;;
75450;SDS011;64029;48.244;9.188;2023-12-28T10:42:43;9.60;;;5.83;;
75450;SDS011;64029;48.244;9.188;2023-12-28T10:45:18;13.50;;;8.10;;
75450;SDS011;64029;48.244;9.188;2023-12-28T10:47:51;13.03;;;7.33;;
75450;SDS011;64029;48.244;9.188;2023-12-28T10:50:25;14.50;;;6.97;;
75450;SDS011;64029;48.244;9.188;2023-12-28T10:52:56;14.87;;;7.73;;
75450;SDS011;64029;48.244;9.188;2023-12-28T10:55:34;11.57;;;6.80;;
75450;SDS011;64029;48.244;9.188;2023-12-28T10:58:10;10.80;;;6.13;;
75450;SDS011;64029;48.244;9.188;2023-12-28T11:00:41;9.03;;;6.00;;
75450;SDS011;64029;48.244;9.188;2023-12-28T11:03:14;10.63;;;6.43;;
75450;SDS011;64029;48.244;9.188;2023-12-28T11:05:49;12.07;;;7.40;;
75450;SDS011;64029;48.244;9.188;2023-12-28T11:08:18;12.67;;;7.47;;
75450;SDS011;64029;48.244;9.188;2023-12-28T11:10:47;12.10;;;6.47;;
75450;SDS011;64029;48.244;9.188;2023-12-28T11:13:17;9.07;;;6.37;;
75450;SDS011;64029;48.244;9.188;2023-12-28T11:15:46;10.00;;;6.00;;
75450;SDS011;64029;48.244;9.188;2023-12-28T11:18:16;7.60;;;4.87;;
75450;SDS011;64029;48.244;9.188;2023-12-28T11:20:43;10.33;;;6.27;;
75450;SDS011;64029;48.244;9.188;2023-12-28T11:23:11;9.77;;;6.40;;
75450;SDS011;64029;48.244;9.188;2023-12-28T11:25:39;8.43;;;5.67;;
75450;SDS011;64029;48.244;9.188;2023-12-28T11:28:10;15.20;;;6.90;;
75450;SDS011;64029;48.244;9.188;2023-12-28T11:30:39;18.53;;;7.20;;
75450;SDS011;64029;48.244;9.188;2023-12-28T11:33:07;9.80;;;5.83;;
75450;SDS011;64029;48.244;9.188;2023-12-28T11:35:36;10.03;;;5.60;;
75450;SDS011;64029;48.244;9.188;2023-12-28T11:38:06;10.20;;;5.50;;
75450;SDS011;64029;48.244;9.188;2023-12-28T11:40:41;9.37;;;5.47;;
75450;SDS011;64029;48.244;9.188;2023-12-28T11:43:14;19.63;;;8.20;;
75450;SDS011;64029;48.244;9.188;2023-12-28T11:45:48;18.43;;;8.53;;
75450;SDS011;64029;48.244;9.188;2023-12-28T11:48:23;14.13;;;8.07;;
75450;SDS011;64029;48.244;9.188;2023-12-28T11:50:52;17.23;;;8.50;;
75450;SDS011;64029;48.244;9.188;2023-12-28T11:53:22;11.27;;;6.40;;
75450;SDS011;64029;48.244;9.188;2023-12-28T11:55:49;14.70;;;7.63;;
75450;SDS011;64029;48.244;9.188;2023-12-28T11:58:16;12.40;;;6.83;;
75450;SDS011;64029;48.244;9.188;2023-12-28T12:00:44;12.70;;;7.13;;
75450;SDS011;64029;48.244;9.188;2023-12-28T12:03:12;21.03;;;9.60;;
75450;SDS011;64029;48.244;9.188;2023-12-28T12:05:40;22.20;;;8.90;;
75450;SDS011;64029;48.244;9.188;2023-12-28T12:08:07;20.07;;;9.50;;
75450;SDS011;64029;48.244;9.188;2023-12-28T12:10:38;14.17;;;7.10;;
75450;SDS011;64029;48.244;9.188;2023-12-28T12:13:05;14.00;;;6.80;;
75450;SDS011;64029;48.244;9.188;2023-12-28T12:15:32;9.77;;;5.93;;
75450;SDS011;64029;48.244;9.188;2023-12-28T12:17:59;10.43;;;6.13;;
75450;SDS011;64029;48.244;9.188;2023-12-28T12:20:29;6.73;;;5.17;;
75450;SDS011;64029;48.244;9.188;2023-12-28T12:22:57;6.47;;;5.20;;
75450;SDS011;64029;48.244;9.188;2023-12-28T12:25:24;7.30;;;5.27;;
75450;SDS011;64029;48.244;9.188;2023-12-28T12:27:52;11.80;;;6.57;;
75450;SDS011;64029;48.244;9.188;2023-12-28T12:30:19;10.20;;;5.77;;
75450;SDS011;64029;48.244;9.188;2023-12-28T12:32:46;8.83;;;5.77;;
75450;SDS011;64029;48.244;9.188;2023-12-28T12:35:14;10.00;;;5.87;;
75450;SDS011;64029;48.244;9.188;2023-12-28T12:37:44;8.40;;;5.40;;
75450;SDS011;64029;48.244;9.188;2023-12-28T12:40:12;7.50;;;4.80;;
75450;SDS011;64029;48.244;9.188;2023-12-28T12:42:40;7.20;;;5.70;;
75450;SDS011;64029;48.244;9.188;2023-12-28T12:45:08;7.90;;;5.10;;
75450;SDS011;64029;48.244;9.188;2023-12-28T12:47:35;8.37;;;5.30;;
75450;SDS011;64029;48.244;9.188;2023-12-28T12:50:02;7.23;;;4.77;;
75450;SDS011;64029;48.244;9.188;2023-12-28T12:52:29;8.23;;;5.33;;
75450;SDS011;64029;48.244;9.188;2023-12-28T12:54:57;6.80;;;5.40;;
75450;SDS011;64029;48.244;9.188;2023-12-28T12:57:24;9.80;;;4.60;;
75450;SDS011;64029;48.244;9.188;2023-12-28T12:59:52;7.20;;;4.97;;
75450;SDS011;64029;48.244;9.188;2023-12-28T13:02:21;8.00;;;5.23;;
75450;SDS011;64029;48.244;9.188;2023-12-28T13:04:50;6.33;;;5.20;;
75450;SDS011;64029;48.244;9.188;2023-12-28T13:07:17;7.37;;;4.83;;
75450;SDS011;64029;48.244;9.188;2023-12-28T13:09:44;7.17;;;5.43;;
75450;SDS011;64029;48.244;9.188;2023-12-28T13:12:12;9.23;;;5.83;;
75450;SDS011;64029;48.244;9.188;2023-12-28T13:14:39;8.60;;;5.73;;
75450;SDS011;64029;48.244;9.188;2023-12-28T13:17:06;8.43;;;5.30;;
75450;SDS011;64029;48.244;9.188;2023-12-28T13:19:33;9.83;;;5.47;;
75450;SDS011;64029;48.244;9.188;2023-12-28T13:22:00;7.17;;;4.90;;
75450;SDS011;64029;48.244;9.188;2023-12-28T13:24:26;7.87;;;4.97;;
75450;SDS011;64029;48.244;9.188;2023-12-28T13:26:53;8.17;;;5.30;;
75450;SDS011;64029;48.244;9.188;2023-12-28T13:29:21;13.10;;;6.43;;
75450;SDS011;64029;48.244;9.188;2023-12-28T13:31:48;12.50;;;6.53;;
75450;SDS011;64029;48.244;9.188;2023-12-28T13:34:15;9.10;;;7.00;;
75450;SDS011;64029;48.244;9.188;2023-12-28T13:36:43;7.70;;;5.57;;
75450;SDS011;64029;48.244;9.188;2023-12-28T13:39:10;12.20;;;6.10;;
75450;SDS011;64029;48.244;9.188;2023-12-28T13:41:39;8.60;;;5.80;;
75450;SDS011;64029;48.244;9.188;2023-12-28T13:44:06;7.77;;;5.23;;
75450;SDS011;64029;48.244;9.188;2023-12-28T13:46:38;7.27;;;4.60;;
75450;SDS011;64029;48.244;9.188;2023-12-28T13:49:05;8.10;;;5.20;;
75450;SDS011;64029;48.244;9.188;2023-12-28T13:51:32;8.80;;;6.10;;
75450;SDS011;64029;48.244;9.188;2023-12-28T13:53:59;7.23;;;5.10;;
75450;SDS011;64029;48.244;9.188;2023-12-28T13:56:26;8.50;;;5.53;;
75450;SDS011;64029;48.244;9.188;2023-12-28T13:58:53;8.50;;;5.33;;
75450;SDS011;64029;48.244;9.188;2023-12-28T14:01:20;6.83;;;4.77;;
75450;SDS011;64029;48.244;9.188;2023-12-28T14:03:48;7.67;;;5.63;;
75450;SDS011;64029;48.244;9.188;2023-12-28T14:06:16;7.93;;;4.77;;
75450;SDS011;64029;48.244;9.188;2023-12-28T14:08:44;5.70;;;4.77;;
75450;SDS011;64029;48.244;9.188;2023-12-28T14:11:11;7.90;;;5.20;;
75450;SDS011;64029;48.244;9.188;2023-12-28T14:13:38;7.80;;;4.80;;
75450;SDS011;64029;48.244;9.188;2023-12-28T14:16:05;8.07;;;4.97;;
75450;SDS011;64029;48.244;9.188;2023-12-28T14:18:33;11.00;;;5.20;;
75450;SDS011;64029;48.244;9.188;2023-12-28T14:21:01;5.53;;;4.77;;
75450;SDS011;64029;48.244;9.188;2023-12-28T14:23:29;7.23;;;4.80;;
75450;SDS011;64029;48.244;9.188;2023-12-28T14:25:57;4.93;;;4.40;;
75450;SDS011;64029;48.244;9.188;2023-12-28T14:28:24;7.20;;;4.87;;
75450;SDS011;64029;48.244;9.188;2023-12-28T14:30:51;7.27;;;4.77;;
75450;SDS011;64029;48.244;9.188;2023-12-28T14:33:19;8.13;;;4.77;;
75450;SDS011;64029;48.244;9.188;2023-12-28T14:35:47;5.97;;;5.10;;
75450;SDS011;64029;48.244;9.188;2023-12-28T14:38:15;6.60;;;5.27;;
75450;SDS011;64029;48.244;9.188;2023-12-28T14:40:42;7.20;;;5.13;;
75450;SDS011;64029;48.244;9.188;2023-12-28T14:43:09;7.60;;;5.40;;